createdAt,value
2023-10-20T00:00:42.504Z,14.08
2023-10-20T00:03:10.382Z,14.07
2023-10-20T00:05:37.818Z,14.09
2023-10-20T00:08:05.181Z,14.06
2023-10-20T00:10:36.418Z,14.22
2023-10-20T00:13:04.129Z,14.33
2023-10-20T00:15:30.781Z,14.39
2023-10-20T00:20:41.274Z,14.64
2023-10-20T00:23:07.894Z,14.78
2023-10-20T00:25:34.572Z,14.80
2023-10-20T00:28:01.189Z,14.58
2023-10-20T00:30:27.795Z,14.45
2023-10-20T00:32:54.466Z,14.19
2023-10-20T00:35:21.128Z,14.22
2023-10-20T00:37:47.821Z,14.12
2023-10-20T00:40:14.815Z,14.08
2023-10-20T00:42:41.506Z,14.04
2023-10-20T00:45:09.681Z,13.84
2023-10-20T00:47:39.697Z,13.87
2023-10-20T00:50:10.382Z,13.86
2023-10-20T00:52:37.381Z,13.79
2023-10-20T00:55:04.845Z,13.73
2023-10-20T00:57:32.001Z,13.67
2023-10-20T00:59:58.928Z,13.72
2023-10-20T01:02:25.675Z,13.65
2023-10-20T01:04:52.911Z,13.56
2023-10-20T01:07:19.516Z,13.59
2023-10-20T01:09:46.229Z,13.61
2023-10-20T01:12:12.978Z,13.71
2023-10-20T01:14:39.960Z,13.62
2023-10-20T01:17:06.722Z,13.84
2023-10-20T01:19:34.147Z,13.90
2023-10-20T01:22:01.156Z,13.88
2023-10-20T01:24:28.047Z,13.84
2023-10-20T01:26:54.802Z,13.92
2023-10-20T01:29:21.743Z,13.92
2023-10-20T01:31:48.589Z,13.81
2023-10-20T01:34:15.314Z,13.89
2023-10-20T01:36:42.745Z,13.93
2023-10-20T01:39:09.496Z,13.95
2023-10-20T01:41:36.247Z,13.98
2023-10-20T01:44:03.545Z,14.07
2023-10-20T01:46:30.560Z,13.96
2023-10-20T01:48:57.225Z,13.92
2023-10-20T01:51:23.904Z,13.97
2023-10-20T01:53:50.538Z,13.90
2023-10-20T01:56:17.339Z,13.77
2023-10-20T01:58:43.990Z,13.83
2023-10-20T02:01:10.813Z,13.85
2023-10-20T02:03:38.304Z,13.90
2023-10-20T02:06:06.175Z,13.90
2023-10-20T02:08:33.653Z,14.14
2023-10-20T02:11:01.324Z,14.28
2023-10-20T02:13:28.428Z,14.41
2023-10-20T02:15:55.123Z,14.51
2023-10-20T02:18:21.949Z,14.46
2023-10-20T02:21:05.563Z,14.50
2023-10-20T02:23:33.049Z,14.48
2023-10-20T02:26:01.372Z,14.38
2023-10-20T02:28:28.430Z,14.47
2023-10-20T02:30:58.330Z,14.49
2023-10-20T02:33:25.048Z,14.48
2023-10-20T02:35:53.348Z,14.38
2023-10-20T02:38:23.075Z,14.37
2023-10-20T02:40:51.462Z,14.22
2023-10-20T02:43:18.123Z,14.15
2023-10-20T02:45:49.496Z,14.25
2023-10-20T02:48:16.794Z,14.19
2023-10-20T02:50:43.558Z,14.20
2023-10-20T02:53:10.338Z,14.12
2023-10-20T02:55:38.357Z,13.98
2023-10-20T02:58:05.095Z,14.06
2023-10-20T03:00:31.758Z,14.05
2023-10-20T03:02:59.800Z,14.18
2023-10-20T03:05:31.111Z,14.12
2023-10-20T03:07:59.142Z,14.16
2023-10-20T03:10:27.043Z,14.16
2023-10-20T03:12:53.630Z,14.08
2023-10-20T03:15:21.013Z,14.07
2023-10-20T03:17:47.485Z,14.23
2023-10-20T03:20:18.803Z,14.37
2023-10-20T03:22:47.920Z,14.41
2023-10-20T03:25:16.062Z,14.49
2023-10-20T03:27:42.712Z,14.54
2023-10-20T03:30:09.616Z,14.58
2023-10-20T03:32:36.620Z,14.67
2023-10-20T03:35:03.609Z,14.80
2023-10-20T03:37:30.497Z,14.71
2023-10-20T03:39:57.168Z,14.72
2023-10-20T03:42:23.790Z,14.80
2023-10-20T03:44:50.515Z,14.81
2023-10-20T03:47:18.587Z,14.87
2023-10-20T03:49:45.297Z,15.00
2023-10-20T03:52:14.837Z,14.91
2023-10-20T03:54:41.651Z,14.90
2023-10-20T03:57:08.350Z,14.96
2023-10-20T03:59:35.560Z,14.88
2023-10-20T04:02:03.013Z,14.84
2023-10-20T04:04:29.843Z,14.76
2023-10-20T04:06:56.483Z,14.68
2023-10-20T04:09:24.194Z,14.59
2023-10-20T04:11:51.220Z,14.57
2023-10-20T04:14:17.998Z,14.48
2023-10-20T04:16:45.293Z,14.22
2023-10-20T04:19:14.044Z,14.24
2023-10-20T04:21:42.014Z,14.22
2023-10-20T04:24:09.014Z,14.23
2023-10-20T04:26:36.680Z,14.16
2023-10-20T04:29:15.448Z,14.07
2023-10-20T04:32:00.723Z,13.97
2023-10-20T04:34:46.268Z,14.04
2023-10-20T04:37:31.773Z,13.89
2023-10-20T04:40:18.218Z,13.96
2023-10-20T04:42:53.916Z,13.91
2023-10-20T04:45:23.537Z,13.91
2023-10-20T04:48:08.560Z,13.94
2023-10-20T04:50:54.071Z,13.86
2023-10-20T04:53:38.881Z,13.79
2023-10-20T04:56:18.099Z,13.80
2023-10-20T04:59:06.052Z,13.78
2023-10-20T05:01:46.817Z,13.89
2023-10-20T05:04:25.582Z,14.18
2023-10-20T05:07:09.570Z,14.33
2023-10-20T05:09:45.008Z,14.47
2023-10-20T05:12:11.852Z,14.50
2023-10-20T05:14:38.480Z,14.64
2023-10-20T05:17:07.003Z,14.75
2023-10-20T05:19:37.147Z,14.83
2023-10-20T05:22:03.782Z,14.84
2023-10-20T05:24:30.404Z,14.83
2023-10-20T05:26:56.994Z,14.92
2023-10-20T05:29:23.718Z,14.93
2023-10-20T05:31:50.551Z,15.02
2023-10-20T05:34:17.138Z,15.08
2023-10-20T05:36:43.906Z,14.92
2023-10-20T05:39:10.714Z,15.20
2023-10-20T05:41:37.406Z,15.19
2023-10-20T05:44:06.049Z,15.25
2023-10-20T05:46:33.197Z,15.34
2023-10-20T05:48:59.767Z,15.54
2023-10-20T05:51:26.330Z,15.67
2023-10-20T05:53:54.646Z,15.88
2023-10-20T05:56:21.330Z,16.11
2023-10-20T05:58:48.018Z,16.32
2023-10-20T06:01:14.766Z,16.50
2023-10-20T06:03:41.581Z,16.63
2023-10-20T06:06:08.320Z,16.84
2023-10-20T06:08:35.041Z,16.89
2023-10-20T06:11:05.766Z,17.11
2023-10-20T06:13:35.601Z,17.22
2023-10-20T06:16:21.504Z,17.47
2023-10-20T06:18:48.248Z,17.71
2023-10-20T06:21:16.389Z,17.81
2023-10-20T06:23:43.337Z,17.98
2023-10-20T06:26:10.135Z,18.06
2023-10-20T06:28:36.778Z,18.12
2023-10-20T06:31:23.502Z,18.49
2023-10-20T06:33:56.994Z,18.75
2023-10-20T06:36:27.638Z,18.68
2023-10-20T06:38:54.638Z,18.59
2023-10-20T06:41:21.562Z,18.84
2023-10-20T06:43:49.174Z,18.87
2023-10-20T06:46:15.837Z,18.72
2023-10-20T06:48:42.566Z,18.84
2023-10-20T06:51:09.271Z,19.06
2023-10-20T06:53:36.353Z,18.93
2023-10-20T06:56:15.222Z,19.13
2023-10-20T06:58:43.354Z,19.36
2023-10-20T07:01:09.957Z,19.43
2023-10-20T07:03:36.866Z,19.82
2023-10-20T07:06:08.452Z,20.32
2023-10-20T07:08:35.546Z,20.41
2023-10-20T07:11:03.767Z,20.63
2023-10-20T07:13:33.366Z,21.04
2023-10-20T07:16:00.423Z,21.29
2023-10-20T07:18:27.852Z,21.62
2023-10-20T07:20:58.502Z,21.46
2023-10-20T07:23:25.457Z,21.21
2023-10-20T07:25:52.124Z,21.22
2023-10-20T07:28:18.678Z,21.32
2023-10-20T07:30:45.277Z,21.12
2023-10-20T07:33:12.216Z,21.02
2023-10-20T07:35:39.932Z,21.17
2023-10-20T07:38:06.840Z,21.12
2023-10-20T07:40:36.376Z,21.20
2023-10-20T07:43:07.405Z,21.22
2023-10-20T07:45:44.126Z,21.25
2023-10-20T07:48:12.268Z,21.76
2023-10-20T07:50:39.537Z,21.72
2023-10-20T07:53:06.595Z,22.04
2023-10-20T07:55:33.341Z,22.04
2023-10-20T07:57:59.979Z,22.08
2023-10-20T08:00:26.690Z,22.27
2023-10-20T08:02:55.679Z,22.86
2023-10-20T08:05:26.820Z,22.73
2023-10-20T08:07:54.391Z,23.42
2023-10-20T08:10:22.894Z,23.97
2023-10-20T08:12:50.560Z,24.01
2023-10-20T08:15:17.719Z,24.24
2023-10-20T08:17:46.324Z,24.02
2023-10-20T08:20:13.845Z,23.66
2023-10-20T08:22:40.776Z,23.74
2023-10-20T08:25:08.613Z,23.94
2023-10-20T08:27:35.395Z,23.98
2023-10-20T08:30:02.345Z,23.83
2023-10-20T08:32:30.379Z,23.61
2023-10-20T08:34:57.058Z,23.89
2023-10-20T08:37:23.889Z,24.25
2023-10-20T08:39:50.559Z,23.25
2023-10-20T08:42:21.186Z,22.48
2023-10-20T08:44:48.075Z,22.54
2023-10-20T08:47:16.418Z,22.38
2023-10-20T08:49:47.353Z,23.12
2023-10-20T08:52:15.116Z,23.86
2023-10-20T08:54:42.379Z,24.68
2023-10-20T08:57:09.598Z,25.18
2023-10-20T08:59:37.549Z,25.29
2023-10-20T09:02:05.266Z,25.11
2023-10-20T09:04:32.521Z,25.26
2023-10-20T09:07:13.225Z,25.52
2023-10-20T09:12:09.937Z,24.06
2023-10-20T09:14:40.958Z,23.02
2023-10-20T09:17:10.040Z,22.52
2023-10-20T09:19:37.308Z,22.78
2023-10-20T09:22:03.859Z,22.57
2023-10-20T09:24:33.418Z,22.44
2023-10-20T09:27:01.157Z,22.51
2023-10-20T09:29:28.915Z,22.52
2023-10-20T09:31:56.240Z,22.91
2023-10-20T09:34:22.868Z,23.05
2023-10-20T09:36:50.604Z,22.92
2023-10-20T09:39:26.186Z,22.77
2023-10-20T09:41:55.013Z,22.76
2023-10-20T09:44:26.468Z,22.89
2023-10-20T09:46:56.785Z,23.05
2023-10-20T09:49:27.327Z,23.32
2023-10-20T09:51:55.694Z,23.37
2023-10-20T09:54:29.648Z,23.39
2023-10-20T09:57:00.555Z,23.49
2023-10-20T09:59:29.001Z,23.40
2023-10-20T10:01:57.646Z,23.58
2023-10-20T10:04:38.910Z,23.95
2023-10-20T10:07:10.497Z,24.14
2023-10-20T10:09:53.566Z,24.29
2023-10-20T10:12:21.662Z,24.25
2023-10-20T10:14:58.922Z,24.11
2023-10-20T10:17:28.916Z,24.17
2023-10-20T10:19:57.160Z,24.35
2023-10-20T10:22:28.761Z,24.18
2023-10-20T10:24:57.785Z,24.03
2023-10-20T10:27:31.592Z,24.08
2023-10-20T10:30:06.672Z,23.93
2023-10-20T10:32:35.612Z,23.95
2023-10-20T10:35:05.222Z,24.10
2023-10-20T10:37:36.114Z,23.79
2023-10-20T10:40:23.672Z,23.73
2023-10-20T10:42:52.082Z,23.78
2023-10-20T10:45:25.515Z,23.86
2023-10-20T10:48:13.125Z,23.93
2023-10-20T10:50:45.076Z,23.95
2023-10-20T10:53:12.977Z,23.99
2023-10-20T10:55:40.218Z,23.93
2023-10-20T10:58:07.713Z,23.94
2023-10-20T11:00:35.017Z,23.74
2023-10-20T11:03:03.580Z,23.91
2023-10-20T11:05:34.425Z,23.97
2023-10-20T11:08:08.697Z,23.88
2023-10-20T11:10:38.897Z,23.84
2023-10-20T11:13:07.968Z,23.93
2023-10-20T11:15:36.328Z,23.98
2023-10-20T11:18:06.423Z,24.06
2023-10-20T11:20:39.475Z,24.30
2023-10-20T11:23:08.446Z,24.49
2023-10-20T11:28:04.241Z,24.67
2023-10-20T11:30:39.791Z,24.85
2023-10-20T11:33:06.911Z,25.11
2023-10-20T11:35:33.837Z,25.00
2023-10-20T11:38:02.213Z,25.12
2023-10-20T11:40:29.118Z,25.08
2023-10-20T11:42:56.962Z,25.09
2023-10-20T11:45:23.755Z,25.14
2023-10-20T11:47:50.635Z,25.17
2023-10-20T11:50:17.768Z,25.21
2023-10-20T11:52:44.399Z,25.31
2023-10-20T11:55:12.177Z,25.38
2023-10-20T11:57:39.791Z,25.45
2023-10-20T12:00:11.040Z,25.61
2023-10-20T12:02:39.607Z,25.60
2023-10-20T12:05:07.971Z,25.70
2023-10-20T12:07:34.886Z,25.52
2023-10-20T12:10:01.602Z,25.53
2023-10-20T12:12:28.381Z,25.69
2023-10-20T12:14:55.034Z,25.82
2023-10-20T12:17:22.009Z,25.95
2023-10-20T12:19:50.319Z,25.94
2023-10-20T12:22:18.712Z,25.88
2023-10-20T12:24:45.314Z,25.89
2023-10-20T12:27:14.389Z,25.84
2023-10-20T12:29:41.608Z,25.96
2023-10-20T12:32:13.626Z,25.89
2023-10-20T12:34:40.959Z,25.82
2023-10-20T12:37:08.626Z,25.81
2023-10-20T12:39:35.459Z,25.91
2023-10-20T12:42:06.311Z,25.91
2023-10-20T12:44:35.396Z,25.97
2023-10-20T12:47:02.674Z,25.89
2023-10-20T12:49:29.487Z,25.68
2023-10-20T12:51:56.677Z,25.81
2023-10-20T12:54:24.705Z,25.89
2023-10-20T12:56:51.537Z,25.76
2023-10-20T12:59:18.523Z,25.83
2023-10-20T13:01:45.342Z,25.91
2023-10-20T13:04:12.576Z,25.98
2023-10-20T13:06:53.779Z,25.84
2023-10-20T13:09:25.438Z,25.78
2023-10-20T13:11:52.437Z,25.86
2023-10-20T13:14:19.132Z,25.85
2023-10-20T13:16:45.843Z,25.83
2023-10-20T13:19:14.970Z,25.72
2023-10-20T13:21:42.380Z,25.73
2023-10-20T13:24:09.544Z,25.83
2023-10-20T13:26:36.223Z,25.75
2023-10-20T13:29:02.853Z,25.81
2023-10-20T13:31:30.045Z,25.67
2023-10-20T13:33:56.592Z,25.69
2023-10-20T13:36:23.235Z,25.65
2023-10-20T13:38:49.980Z,25.76
2023-10-20T13:41:16.701Z,25.79
2023-10-20T13:43:43.358Z,25.61
2023-10-20T13:46:11.036Z,25.66
2023-10-20T13:48:38.489Z,25.58
2023-10-20T13:51:05.337Z,25.61
2023-10-20T13:53:32.267Z,25.61
2023-10-20T13:55:58.901Z,25.58
2023-10-20T14:16:45.024Z,25.38
2023-10-20T14:19:12.356Z,25.19
2023-10-20T14:21:39.908Z,24.93
2023-10-20T14:24:08.069Z,24.80
2023-10-20T14:26:34.773Z,24.75
2023-10-20T14:29:01.382Z,24.72
2023-10-20T14:31:31.712Z,24.61
2023-10-20T14:34:00.361Z,24.40
2023-10-20T14:36:27.371Z,24.32
2023-10-20T14:38:54.079Z,24.28
2023-10-20T14:41:20.745Z,24.10
2023-10-20T14:43:47.381Z,24.04
2023-10-20T14:46:14.447Z,23.95
2023-10-20T14:48:41.184Z,24.04
2023-10-20T14:51:09.217Z,23.95
2023-10-20T14:53:36.159Z,23.92
2023-10-20T14:56:04.256Z,23.86
2023-10-20T14:58:32.002Z,23.77
2023-10-20T15:00:58.837Z,23.64
2023-10-20T15:03:25.762Z,23.56
2023-10-20T15:05:52.657Z,23.39
2023-10-20T15:08:20.932Z,23.43
2023-10-20T15:10:48.791Z,23.35
2023-10-20T15:13:16.238Z,23.23
2023-10-20T15:15:42.995Z,23.06
2023-10-20T15:18:09.818Z,23.00
2023-10-20T15:20:40.406Z,22.99
2023-10-20T15:23:17.203Z,22.84
2023-10-20T15:25:44.934Z,22.91
2023-10-20T15:28:11.588Z,22.83
2023-10-20T15:30:38.286Z,22.72
2023-10-20T15:33:05.288Z,22.61
2023-10-20T15:35:32.775Z,22.49
2023-10-20T15:38:03.224Z,22.55
2023-10-20T15:40:30.413Z,22.40
2023-10-20T15:42:57.083Z,22.34
2023-10-20T15:45:23.772Z,22.35
2023-10-20T15:47:51.098Z,22.30
2023-10-20T15:50:18.357Z,22.22
2023-10-20T15:52:45.015Z,22.16
2023-10-20T15:55:11.657Z,22.15
2023-10-20T15:57:38.301Z,22.06
2023-10-20T16:00:05.724Z,22.03
2023-10-20T16:02:32.456Z,21.99
2023-10-20T16:04:59.271Z,21.96
2023-10-20T16:07:26.578Z,21.95
2023-10-20T16:09:53.155Z,21.91
2023-10-20T16:12:19.860Z,21.83
2023-10-20T16:14:46.493Z,21.86
2023-10-20T16:17:13.138Z,21.86
2023-10-20T16:19:40.511Z,21.76
2023-10-20T16:22:07.382Z,21.76
2023-10-20T16:24:34.097Z,21.69
2023-10-20T16:27:00.867Z,21.58
2023-10-20T16:29:27.612Z,21.57
2023-10-20T16:31:54.297Z,21.52
2023-10-20T16:34:21.808Z,21.58
2023-10-20T16:36:48.543Z,21.55
2023-10-20T16:39:19.041Z,21.53
2023-10-20T16:41:46.395Z,21.55
2023-10-20T16:44:13.741Z,21.43
2023-10-20T16:46:41.557Z,21.34
2023-10-20T16:49:08.601Z,21.51
2023-10-20T16:51:35.249Z,21.50
2023-10-20T16:54:02.330Z,21.64
2023-10-20T16:56:29.030Z,21.78
2023-10-20T16:58:55.756Z,21.65
2023-10-20T17:01:23.125Z,21.51
2023-10-20T17:03:50.035Z,21.59
2023-10-20T17:06:16.768Z,21.62
2023-10-20T17:08:43.582Z,21.59
2023-10-20T17:11:12.437Z,21.55
2023-10-20T17:13:39.056Z,21.47
2023-10-20T17:16:07.197Z,21.41
2023-10-20T17:18:34.188Z,21.42
2023-10-20T17:21:05.469Z,21.43
2023-10-20T17:23:32.817Z,21.34
2023-10-20T17:26:00.274Z,21.33
2023-10-20T17:28:27.204Z,21.32
2023-10-20T17:30:58.897Z,21.28
2023-10-20T17:33:28.741Z,21.19
2023-10-20T17:36:02.278Z,21.21
2023-10-20T17:38:29.099Z,21.21
2023-10-20T17:41:00.498Z,21.31
2023-10-20T17:43:27.151Z,21.27
2023-10-20T17:45:53.863Z,21.32
2023-10-20T17:48:20.642Z,21.35
2023-10-20T17:50:47.496Z,21.33
2023-10-20T17:53:14.199Z,21.23
2023-10-20T17:55:42.493Z,21.22
2023-10-20T17:58:09.991Z,21.26
2023-10-20T18:00:36.672Z,21.10
2023-10-20T18:03:04.010Z,21.09
2023-10-20T18:05:30.968Z,21.04
2023-10-20T18:07:58.606Z,21.04
2023-10-20T18:10:25.198Z,21.04
2023-10-20T18:12:51.824Z,21.08
2023-10-20T18:15:18.648Z,21.06
2023-10-20T18:17:45.268Z,21.02
2023-10-20T18:20:12.015Z,21.02
2023-10-20T18:22:38.613Z,21.06
2023-10-20T18:25:05.679Z,21.03
2023-10-20T18:27:32.381Z,21.11
2023-10-20T18:29:59.570Z,21.04
2023-10-20T18:32:26.240Z,21.02
2023-10-20T18:34:52.866Z,21.03
2023-10-20T18:37:19.692Z,20.92
2023-10-20T18:39:46.423Z,20.92
2023-10-20T18:42:13.222Z,20.90
2023-10-20T18:44:40.684Z,20.89
2023-10-20T18:47:07.424Z,20.95
2023-10-20T18:49:34.297Z,20.94
2023-10-20T18:52:01.082Z,20.88
2023-10-20T18:54:27.705Z,20.84
2023-10-20T18:56:54.632Z,20.72
2023-10-20T18:59:21.664Z,20.71
2023-10-20T19:01:48.320Z,20.76
2023-10-20T19:04:14.984Z,20.72
2023-10-20T19:06:41.876Z,20.69
2023-10-20T19:09:09.595Z,20.70
2023-10-20T19:11:37.550Z,20.73
2023-10-20T19:14:04.502Z,20.66
2023-10-20T19:16:34.503Z,20.64
2023-10-20T19:19:01.678Z,20.63
2023-10-20T19:21:28.655Z,20.58
2023-10-20T19:23:55.452Z,20.59
2023-10-20T19:26:22.277Z,20.60
2023-10-20T19:28:49.035Z,20.63
2023-10-20T19:31:15.743Z,20.54
2023-10-20T19:33:42.598Z,20.45
2023-10-20T19:36:10.616Z,20.50
2023-10-20T19:38:38.208Z,20.51
2023-10-20T19:41:05.155Z,20.41
2023-10-20T19:43:31.734Z,20.58
2023-10-20T19:45:59.136Z,20.56
2023-10-20T19:48:25.881Z,20.52
2023-10-20T19:50:52.765Z,20.49
2023-10-20T19:53:19.532Z,20.48
2023-10-20T19:55:46.929Z,20.40
2023-10-20T19:58:13.562Z,20.40
2023-10-20T20:00:41.037Z,20.33
2023-10-20T20:03:08.336Z,20.37
2023-10-20T20:05:35.372Z,20.31
2023-10-20T20:08:02.081Z,20.22
2023-10-20T20:10:28.876Z,20.27
2023-10-20T20:12:55.535Z,20.17
2023-10-20T20:15:24.768Z,20.18
2023-10-20T20:17:52.038Z,20.12
2023-10-20T20:20:18.905Z,20.09
2023-10-20T20:22:45.824Z,19.99
2023-10-20T20:25:12.668Z,19.96
2023-10-20T20:27:39.588Z,19.97
2023-10-20T20:30:06.984Z,20.00
2023-10-20T20:32:33.795Z,19.91
2023-10-20T20:35:00.679Z,19.85
2023-10-20T20:37:27.352Z,19.87
2023-10-20T20:39:54.202Z,19.89
2023-10-20T20:42:20.963Z,19.86
2023-10-20T20:44:47.727Z,19.84
2023-10-20T20:47:14.479Z,19.80
2023-10-20T20:49:41.226Z,19.88
2023-10-20T20:52:07.950Z,19.87
2023-10-20T20:54:35.432Z,19.81
2023-10-20T20:57:02.150Z,19.71
2023-10-20T20:59:28.856Z,19.73
2023-10-20T21:01:55.571Z,19.74
2023-10-20T21:04:22.312Z,19.66
2023-10-20T21:06:49.095Z,19.58
2023-10-20T21:09:15.748Z,19.61
2023-10-20T21:11:42.444Z,19.68
2023-10-20T21:14:09.700Z,19.69
2023-10-20T21:16:36.235Z,19.63
2023-10-20T21:19:04.861Z,19.63
2023-10-20T21:21:31.529Z,19.58
2023-10-20T21:23:59.026Z,19.60
2023-10-20T21:26:25.717Z,19.61
2023-10-20T21:28:53.007Z,19.58
2023-10-20T21:31:19.976Z,19.65
2023-10-20T21:33:47.397Z,19.62
2023-10-20T21:36:16.217Z,19.49
2023-10-20T21:38:43.133Z,19.61
2023-10-20T21:41:10.131Z,19.58
2023-10-20T21:43:36.780Z,19.53
2023-10-20T21:46:04.949Z,19.54
2023-10-20T21:48:31.878Z,19.52
2023-10-20T21:51:03.818Z,19.46
2023-10-20T21:53:33.290Z,19.49
2023-10-20T21:56:06.866Z,19.51
2023-10-20T21:58:33.931Z,19.45
2023-10-20T22:01:00.730Z,19.42
2023-10-20T22:03:28.266Z,19.35
2023-10-20T22:05:55.238Z,19.39
2023-10-20T22:08:22.354Z,19.32
2023-10-20T22:10:49.157Z,19.28
2023-10-20T22:13:15.999Z,19.39
2023-10-20T22:15:42.584Z,19.28
2023-10-20T22:18:11.912Z,19.26
2023-10-20T22:20:39.734Z,19.21
2023-10-20T22:23:07.963Z,19.21
2023-10-20T22:25:35.633Z,19.09
2023-10-20T22:28:02.241Z,19.05
2023-10-20T22:30:29.017Z,18.98
2023-10-20T22:32:55.762Z,19.01
2023-10-20T22:35:24.276Z,19.03
2023-10-20T22:37:51.633Z,19.05
2023-10-20T22:40:18.451Z,18.97
2023-10-20T22:42:45.226Z,18.74
2023-10-20T22:45:12.315Z,18.82
2023-10-20T22:47:39.028Z,18.79
2023-10-20T22:50:08.631Z,18.69
2023-10-20T22:52:35.646Z,18.57
2023-10-20T22:55:03.721Z,18.68
2023-10-20T22:57:30.852Z,18.77
2023-10-20T22:59:58.650Z,18.74
2023-10-20T23:02:25.774Z,18.85
2023-10-20T23:04:52.550Z,18.89
2023-10-20T23:07:19.155Z,18.85
2023-10-20T23:09:45.839Z,18.73
2023-10-20T23:12:13.005Z,18.78
2023-10-20T23:14:39.635Z,18.73
2023-10-20T23:17:06.239Z,18.72
2023-10-20T23:19:32.958Z,18.76
2023-10-20T23:21:59.641Z,18.78
2023-10-20T23:24:26.283Z,18.74
2023-10-20T23:26:52.955Z,18.74
2023-10-20T23:29:20.436Z,18.65
2023-10-20T23:31:47.067Z,18.78
2023-10-20T23:34:13.799Z,18.58
2023-10-20T23:36:41.848Z,18.54
2023-10-20T23:39:08.726Z,18.54
2023-10-20T23:41:35.445Z,18.53
2023-10-20T23:44:02.079Z,18.52
2023-10-20T23:46:28.882Z,18.53
2023-10-20T23:48:55.546Z,18.49
2023-10-20T23:51:22.241Z,18.59
2023-10-20T23:53:49.212Z,18.63
2023-10-20T23:56:16.028Z,18.61
2023-10-20T23:58:42.640Z,18.69
